West Boylston, MA (01583)

10:38 PM EDT on August 23, 2016 (GMT -0400)
West Boylston center | | Change Station

Elev 600 ft 42.36 °N, 71.79 °W | Updated 9 seconds ago

Clear
Clear
63.5 °F
Feels Like 63.5 °F
N
0.0
Wind Variable Wind from NW
Gusts 0.0 mph

Today
High -- | Low -- °F
--% Chance of Precip.
Yesterday
High -- | Low -- °F
Precip. -- in
Pressure 30.26 in
Visibility 10.0 miles
Clouds Clear
Dew Point 55 °F
Humidity 73%
Rainfall 0.00 in
Snow Depth Not available.
6:03 AM 7:35 PM
Waning Gibbous, 62% visible
METAR KORH 240154Z AUTO 23006KT 10SM CLR 17/12 A3026 RMK AO2 SLP247 LAST AUGMENTED OBS T01720117
Pressure 30.26 in
Visibility 10.0 miles
Clouds Clear
Dew Point 55 °F
Humidity 73%
Rainfall 0.00 in
Snow Depth Not available.
6:03 AM 7:35 PM
Waning Gibbous, 62% visible
METAR KORH 240154Z AUTO 23006KT 10SM CLR 17/12 A3026 RMK AO2 SLP247 LAST AUGMENTED OBS T01720117

10-Day Weather Forecast

Almanac

Astronomy

Aug. 23, 2016 Rise Set
Actual Time
Civil Twilight
Nautical Twilight
Astronomical Twilight
Moon
Length of Visible Light
Length of Day
Tomorrow will be .
, % of the Moon is Illuminated

Today's Extremes

State Highs State Lows

Community

WunderPhotos

Upload Photos

1,934,528 photos uploaded!

WunderBlog® & News

Nearby

Air Quality

  Air Quality AQ Index Pollutant
Not available.

Snow Depth

Station Depth Elevation

Earthquake Activity

City Distance Mag. Time & Date
Minimum magnitude displayed is 2.5.

Coastal Water Temperatures

Place Temperature

Stations

Nearby Weather Stations

Station Location Temp. Windchill Dew Point Humidity Wind Precip. Elev Updated Type
                   

Watches & Warnings

There are currently no watches in effect.